createdAt,value
2022-10-22T00:00:20.711Z,14.2
2022-10-22T00:02:18.407Z,14.2
2022-10-22T00:08:11.266Z,14.2
2022-10-22T00:12:14.442Z,14.2
2022-10-22T00:14:12.051Z,14.2
2022-10-22T00:16:09.673Z,14.1
2022-10-22T00:18:07.299Z,14.3
2022-10-22T00:22:02.533Z,14.2
2022-10-22T00:24:08.085Z,14.2
2022-10-22T00:26:05.710Z,14.3
2022-10-22T00:28:03.341Z,14.2
2022-10-22T00:32:22.035Z,14.1
2022-10-22T00:34:19.655Z,14.2
2022-10-22T00:36:25.214Z,14
2022-10-22T00:38:22.819Z,14.1
2022-10-22T00:44:15.694Z,13.9
2022-10-22T00:46:13.311Z,13.9
2022-10-22T00:48:10.920Z,13.9
2022-10-22T00:50:16.505Z,13.8
2022-10-22T00:52:14.119Z,13.8
2022-10-22T00:54:11.758Z,13.9
2022-10-22T00:56:09.432Z,13.9
2022-10-22T01:00:04.651Z,13.9
2022-10-22T01:06:05.468Z,13.8
2022-10-22T01:08:03.163Z,13.8
2022-10-22T01:11:59.287Z,13.8
2022-10-22T01:13:56.920Z,13.8
2022-10-22T01:15:54.546Z,13.7
2022-10-22T01:18:00.143Z,13.7
2022-10-22T01:19:57.744Z,13.7
2022-10-22T01:21:55.373Z,13.7
2022-10-22T01:22:58.160Z,13.6
2022-10-22T01:24:55.783Z,13.7
2022-10-22T01:26:53.590Z,13.7
2022-10-22T01:28:51.101Z,13.6
2022-10-22T01:30:56.641Z,13.5
2022-10-22T01:32:54.275Z,13.5
2022-10-22T01:34:51.914Z,13.6
2022-10-22T01:36:49.550Z,13.5
2022-10-22T01:38:47.180Z,13.5
2022-10-22T01:40:44.783Z,13.5
2022-10-22T01:42:42.438Z,13.5
2022-10-22T01:44:49.504Z,13.5
2022-10-22T01:46:47.149Z,13.4
2022-10-22T01:48:44.759Z,13.5
2022-10-22T01:50:42.380Z,13.4
2022-10-22T01:56:35.279Z,13.4
2022-10-22T01:58:40.817Z,13.4
2022-10-22T02:00:38.472Z,13.5
2022-10-22T02:02:36.165Z,13.4
2022-10-22T02:04:33.688Z,13.4
2022-10-22T02:06:31.290Z,13.4
2022-10-22T02:08:28.925Z,13.5
2022-10-22T02:16:27.346Z,13.4
2022-10-22T02:17:30.252Z,13.3
2022-10-22T02:19:27.761Z,13.3
2022-10-22T02:21:25.413Z,13.2
2022-10-22T02:23:23.039Z,13.3
2022-10-22T02:29:23.849Z,13.2
2022-10-22T02:31:21.468Z,13.2
2022-10-22T02:33:19.097Z,13.2
2022-10-22T02:35:16.771Z,13.2
2022-10-22T02:37:14.384Z,13.2
2022-10-22T02:39:19.941Z,13.1
2022-10-22T02:41:17.592Z,13.2
2022-10-22T02:43:15.216Z,13.2
2022-10-22T02:45:12.836Z,13.2
2022-10-22T02:49:08.072Z,13.1
2022-10-22T02:51:05.686Z,13
2022-10-22T02:53:11.255Z,13
2022-10-22T02:55:08.866Z,13
2022-10-22T02:57:06.516Z,13.2
2022-10-22T02:59:04.147Z,13.1
2022-10-22T03:01:01.856Z,13.1
2022-10-22T03:02:59.397Z,13.1
2022-10-22T03:07:02.581Z,13.1
2022-10-22T03:09:00.403Z,13
2022-10-22T03:10:57.837Z,13
2022-10-22T03:12:00.615Z,13
2022-10-22T03:13:58.283Z,13.1
2022-10-22T03:15:55.929Z,13.1
2022-10-22T03:17:53.562Z,13.1
2022-10-22T03:19:59.112Z,12.9
2022-10-22T03:21:56.761Z,13.1
2022-10-22T03:23:54.369Z,13
2022-10-22T03:25:52.024Z,13.1
2022-10-22T03:31:44.870Z,13
2022-10-22T03:39:43.403Z,13
2022-10-22T03:41:40.976Z,13
2022-10-22T03:43:38.577Z,13
2022-10-22T03:45:36.196Z,13
2022-10-22T03:47:42.261Z,12.9
2022-10-22T03:49:39.377Z,12.9
2022-10-22T03:51:37.007Z,13.1
2022-10-22T03:53:34.622Z,13
2022-10-22T03:55:32.247Z,12.9
2022-10-22T03:57:29.880Z,12.9
2022-10-22T03:59:27.512Z,12.9
2022-10-22T04:01:33.232Z,12.9
2022-10-22T04:07:51.626Z,12.9
2022-10-22T04:09:49.277Z,12.9
2022-10-22T04:11:46.883Z,13
2022-10-22T04:13:52.433Z,12.9
2022-10-22T04:15:50.063Z,12.9
2022-10-22T04:17:47.685Z,12.9
2022-10-22T04:19:45.311Z,13
2022-10-22T04:21:42.923Z,13
2022-10-22T04:23:40.558Z,13
2022-10-22T04:25:38.205Z,13
2022-10-22T04:27:43.765Z,12.9
2022-10-22T04:29:41.387Z,13
2022-10-22T04:35:34.304Z,12.9
2022-10-22T04:37:31.935Z,12.9
2022-10-22T04:39:29.537Z,12.9
2022-10-22T04:41:35.123Z,13
2022-10-22T04:43:32.715Z,13
2022-10-22T04:47:28.005Z,12.9
2022-10-22T04:49:25.627Z,13
2022-10-22T04:51:23.253Z,12.9
2022-10-22T04:55:26.570Z,12.9
2022-10-22T04:57:24.089Z,13
2022-10-22T04:59:21.723Z,13
2022-10-22T05:00:24.477Z,12.9
2022-10-22T05:02:22.107Z,12.9
2022-10-22T05:08:22.942Z,12.9
2022-10-22T05:14:15.804Z,12.9
2022-10-22T05:16:13.426Z,12.9
2022-10-22T05:18:11.117Z,12.9
2022-10-22T05:24:11.892Z,13
2022-10-22T05:26:09.549Z,13
2022-10-22T05:28:07.188Z,13.1
2022-10-22T05:30:04.812Z,12.9
2022-10-22T05:32:02.451Z,13
2022-10-22T05:34:00.134Z,12.9
2022-10-22T05:41:58.543Z,12.9
2022-10-22T05:43:56.175Z,13
2022-10-22T05:45:53.838Z,13.1
2022-10-22T05:47:51.420Z,13.1
2022-10-22T05:49:56.974Z,13.3
2022-10-22T05:51:54.610Z,13.3
2022-10-22T05:53:52.269Z,13.5
2022-10-22T05:56:52.662Z,13.7
2022-10-22T05:58:50.392Z,13.8
2022-10-22T06:02:53.470Z,13.7
2022-10-22T06:04:51.101Z,13.8
2022-10-22T06:06:48.740Z,13.7
2022-10-22T06:08:46.461Z,13.9
2022-10-22T06:10:44.050Z,13.9
2022-10-22T06:12:42.040Z,14
2022-10-22T06:16:44.847Z,13.8
2022-10-22T06:18:42.479Z,14
2022-10-22T06:20:40.121Z,14
2022-10-22T06:22:37.852Z,14
2022-10-22T06:24:35.440Z,14
2022-10-22T06:26:33.059Z,13.9
2022-10-22T06:28:30.665Z,13.9
2022-10-22T06:30:36.212Z,13.9
2022-10-22T06:32:33.869Z,14
2022-10-22T06:34:31.651Z,13.9
2022-10-22T06:36:29.167Z,14
2022-10-22T06:38:26.749Z,14.1
2022-10-22T06:40:24.358Z,14.1
2022-10-22T06:44:27.549Z,14.2
2022-10-22T06:46:25.197Z,14.2
2022-10-22T06:48:22.810Z,14.1
2022-10-22T06:49:25.591Z,14.1
2022-10-22T06:51:23.239Z,14.1
2022-10-22T06:55:18.495Z,14.2
2022-10-22T06:57:24.054Z,14.2
2022-10-22T06:59:21.670Z,14.2
2022-10-22T07:01:19.363Z,14.2
2022-10-22T07:03:16.914Z,14.3
2022-10-22T07:05:14.554Z,14.2
2022-10-22T07:09:09.960Z,14.3
2022-10-22T07:11:15.365Z,14.3
2022-10-22T07:13:13.006Z,14.3
2022-10-22T07:15:10.627Z,14.4
2022-10-22T07:17:08.244Z,14.4
2022-10-22T07:19:05.856Z,14.4
2022-10-22T07:21:03.494Z,14.4
2022-10-22T07:23:01.132Z,14.6
2022-10-22T07:25:08.237Z,14.5
2022-10-22T07:31:01.015Z,14.6
2022-10-22T07:32:58.652Z,14.5
2022-10-22T07:34:56.291Z,14.6
2022-10-22T07:36:53.892Z,14.6
2022-10-22T07:38:59.458Z,14.6
2022-10-22T07:40:57.080Z,14.5
2022-10-22T07:42:54.708Z,14.5
2022-10-22T07:49:12.975Z,14.7
2022-10-22T07:53:16.172Z,14.8
2022-10-22T07:55:13.802Z,14.9
2022-10-22T07:57:11.382Z,14.9
2022-10-22T07:59:09.035Z,15
2022-10-22T08:01:06.724Z,15.1
2022-10-22T08:03:04.252Z,15
2022-10-22T08:07:07.426Z,15.2
2022-10-22T08:09:05.075Z,15.3
2022-10-22T08:11:02.685Z,15.3
2022-10-22T08:13:00.274Z,15.3
2022-10-22T08:14:57.887Z,15.2
2022-10-22T08:16:55.492Z,15.4
2022-10-22T08:19:01.025Z,15.3
2022-10-22T08:20:58.655Z,15.4
2022-10-22T08:22:56.284Z,15.4
2022-10-22T08:24:53.876Z,15.6
2022-10-22T08:26:51.512Z,15.4
2022-10-22T08:32:54.066Z,15.5
2022-10-22T08:36:47.509Z,15.5
2022-10-22T08:37:50.290Z,15.6
2022-10-22T08:39:47.906Z,15.5
2022-10-22T08:41:45.538Z,15.7
2022-10-22T08:43:43.145Z,15.7
2022-10-22T08:45:48.656Z,15.7
2022-10-22T08:47:46.303Z,15.8
2022-10-22T08:49:43.917Z,15.8
2022-10-22T08:51:41.531Z,15.8
2022-10-22T08:55:37.500Z,15.8
2022-10-22T08:57:34.411Z,15.8
2022-10-22T09:03:35.210Z,15.9
2022-10-22T09:05:32.816Z,15.9
2022-10-22T09:07:30.422Z,16
2022-10-22T09:09:28.030Z,16
2022-10-22T09:11:25.663Z,15.9
2022-10-22T09:13:31.174Z,15.9
2022-10-22T09:15:28.788Z,16
2022-10-22T09:19:24.011Z,16
2022-10-22T09:21:21.619Z,16.1
2022-10-22T09:25:16.834Z,16.3
2022-10-22T09:27:22.361Z,16.2
2022-10-22T09:29:19.980Z,16.2
2022-10-22T09:31:17.557Z,16.1
2022-10-22T09:32:20.334Z,16.3
2022-10-22T09:34:17.928Z,16.1
2022-10-22T09:38:13.165Z,16.1
2022-10-22T09:42:16.302Z,16.3
2022-10-22T09:44:13.934Z,16.2
2022-10-22T09:46:11.529Z,16.1
2022-10-22T09:50:06.750Z,16.2
2022-10-22T09:52:04.368Z,16.3
2022-10-22T09:54:09.895Z,16.2
2022-10-22T09:56:07.532Z,16.2
2022-10-22T09:58:05.150Z,16.2
2022-10-22T10:02:13.357Z,16.5
2022-10-22T10:03:57.808Z,16.6
2022-10-22T10:05:55.422Z,16.4
2022-10-22T10:08:00.905Z,16.5
2022-10-22T10:09:58.510Z,16.7
2022-10-22T10:11:56.124Z,16.6
2022-10-22T10:13:53.729Z,16.8
2022-10-22T10:15:51.307Z,16.9
2022-10-22T10:21:52.070Z,16.9
2022-10-22T10:25:47.266Z,16.9
2022-10-22T10:28:47.655Z,16.9
2022-10-22T10:30:45.249Z,17.2
2022-10-22T10:32:43.218Z,17.2
2022-10-22T10:36:45.994Z,17.2
2022-10-22T10:38:43.599Z,17
2022-10-22T10:40:41.211Z,17.1
2022-10-22T10:44:36.384Z,17
2022-10-22T10:46:36.997Z,17.2
2022-10-22T10:48:39.500Z,17.2
2022-10-22T10:50:37.099Z,17.3
2022-10-22T10:52:34.690Z,17.3
2022-10-22T10:54:32.342Z,17.3
2022-10-22T10:56:29.882Z,17.4
2022-10-22T11:00:25.066Z,17.5
2022-10-22T11:02:30.605Z,17.5
2022-10-22T11:04:28.196Z,17.7
2022-10-22T11:06:25.856Z,17.8
2022-10-22T11:08:23.395Z,17.8
2022-10-22T11:10:21.004Z,17.8
2022-10-22T11:12:18.592Z,18.2
2022-10-22T11:14:16.191Z,18.6
2022-10-22T11:16:21.759Z,19.2
2022-10-22T11:18:19.318Z,19.2
2022-10-22T11:20:16.919Z,19.5
2022-10-22T11:23:00.384Z,19.7
2022-10-22T11:26:38.941Z,19.6
2022-10-22T11:28:44.458Z,19.5
2022-10-22T11:30:42.026Z,19.4
2022-10-22T11:32:39.875Z,19.3
2022-10-22T11:34:37.154Z,19.4
2022-10-22T11:38:34.919Z,20.5
2022-10-22T11:42:35.344Z,20.4
2022-10-22T11:44:32.922Z,20.1
2022-10-22T11:46:30.454Z,19.7
2022-10-22T11:48:28.006Z,19.7
2022-10-22T11:50:25.626Z,19.5
2022-10-22T11:52:23.107Z,19.5
2022-10-22T11:56:26.177Z,20.8
2022-10-22T11:58:23.718Z,20.6
2022-10-22T12:00:21.265Z,20.1
2022-10-22T12:02:18.943Z,19.7
2022-10-22T12:04:16.458Z,19.6
2022-10-22T12:06:13.926Z,20.1
2022-10-22T12:08:14.851Z,20.1
2022-10-22T12:14:11.995Z,22.8
2022-10-22T12:15:14.745Z,23.2
2022-10-22T12:17:12.288Z,22.8
2022-10-22T12:19:09.777Z,22.1
2022-10-22T12:21:07.300Z,21.7
2022-10-22T12:23:12.812Z,20.9
2022-10-22T12:27:08.668Z,21.3
2022-10-22T12:29:05.345Z,23.1
2022-10-22T12:31:02.861Z,22.4
2022-10-22T12:33:00.372Z,20.8
2022-10-22T12:34:57.904Z,20.4
2022-10-22T12:37:03.412Z,19.8
2022-10-22T12:39:00.909Z,19.8
2022-10-22T12:40:58.436Z,19.5
2022-10-22T12:42:56.171Z,19.4
2022-10-22T12:44:53.506Z,19.4
2022-10-22T12:46:54.453Z,19.6
2022-10-22T12:48:48.578Z,19.4
2022-10-22T12:50:54.069Z,19.8
2022-10-22T12:52:51.616Z,19.8
2022-10-22T12:54:49.134Z,20.4
2022-10-22T12:56:46.682Z,20.6
2022-10-22T12:58:44.230Z,20.7
2022-10-22T13:00:41.813Z,21
2022-10-22T13:04:44.814Z,20.4
2022-10-22T13:06:43.928Z,20.4
2022-10-22T13:08:41.458Z,20.2
2022-10-22T13:09:44.163Z,20.8
2022-10-22T13:11:41.708Z,21.2
2022-10-22T13:13:39.245Z,22
2022-10-22T13:15:36.764Z,23.2
2022-10-22T13:17:42.529Z,25.4
2022-10-22T13:19:39.796Z,25.9
2022-10-22T13:21:37.323Z,26.3
2022-10-22T13:23:34.831Z,25.3
2022-10-22T13:25:32.335Z,23.4
2022-10-22T13:27:29.839Z,22.1
2022-10-22T13:29:27.387Z,21.4
2022-10-22T13:31:32.861Z,21
2022-10-22T13:33:30.343Z,20.9
2022-10-22T13:35:27.855Z,20.8
2022-10-22T13:37:25.354Z,20.7
2022-10-22T13:39:22.879Z,20.6
2022-10-22T13:41:20.384Z,20.6
2022-10-22T13:43:17.914Z,20.4
2022-10-22T13:45:23.371Z,20.3
2022-10-22T13:51:15.964Z,20.3
2022-10-22T13:53:17.675Z,20.2
2022-10-22T13:55:11.039Z,20
2022-10-22T13:57:08.558Z,20
2022-10-22T13:59:15.359Z,20.1
2022-10-22T14:01:11.647Z,19.9
2022-10-22T14:04:11.895Z,19.6
2022-10-22T14:06:09.381Z,19.5
2022-10-22T14:08:06.939Z,19.5
2022-10-22T14:10:04.482Z,19.3
2022-10-22T14:12:09.987Z,19.2
2022-10-22T14:14:07.561Z,19.1
2022-10-22T14:16:05.110Z,19.1
2022-10-22T14:18:02.644Z,19.1
2022-10-22T14:20:00.210Z,19.2
2022-10-22T14:21:57.788Z,19.4
2022-10-22T14:23:55.334Z,19.3
2022-10-22T14:26:00.813Z,19.3
2022-10-22T14:27:58.377Z,19.4
2022-10-22T14:29:59.407Z,19.4
2022-10-22T14:31:53.500Z,19.3
2022-10-22T14:37:46.221Z,19.3
2022-10-22T14:43:46.876Z,19.1
2022-10-22T14:45:44.451Z,19.2
2022-10-22T14:47:42.027Z,19
2022-10-22T14:49:39.584Z,18.9
2022-10-22T14:51:37.155Z,18.9
2022-10-22T14:53:42.671Z,18.9
2022-10-22T14:55:40.246Z,18.9
2022-10-22T14:57:37.894Z,18.8
2022-10-22T15:00:04.692Z,18.8
2022-10-22T15:02:02.248Z,18.8
2022-10-22T15:03:59.827Z,18.8
2022-10-22T15:08:02.941Z,18.8
2022-10-22T15:10:00.526Z,18.6
2022-10-22T15:11:58.096Z,18.5
2022-10-22T15:13:55.693Z,18.6
2022-10-22T15:15:53.260Z,18.6
2022-10-22T15:17:50.835Z,18.5
2022-10-22T15:19:56.376Z,18.5
2022-10-22T15:21:53.952Z,18.6
2022-10-22T15:25:49.096Z,18.4
2022-10-22T15:27:50.342Z,18.5
2022-10-22T15:29:44.289Z,18.3
2022-10-22T15:31:41.871Z,18.3
2022-10-22T15:35:44.972Z,18.3
2022-10-22T15:37:42.565Z,18.3
2022-10-22T15:39:40.151Z,18.2
2022-10-22T15:41:37.738Z,18.3
2022-10-22T15:43:35.299Z,18.1
2022-10-22T15:45:32.901Z,18.2
2022-10-22T15:47:38.605Z,18.1
2022-10-22T15:49:35.994Z,18.1
2022-10-22T15:51:33.589Z,17.9
2022-10-22T15:52:36.331Z,18
2022-10-22T15:54:33.925Z,17.9
2022-10-22T15:56:31.512Z,17.9
2022-10-22T16:00:34.651Z,17.7
2022-10-22T16:02:32.240Z,17.7
2022-10-22T16:04:29.857Z,17.7
2022-10-22T16:10:22.637Z,17.5
2022-10-22T16:12:20.232Z,17.6
2022-10-22T16:14:25.763Z,17.4
2022-10-22T16:16:23.373Z,17.5
2022-10-22T16:20:18.557Z,17.4
2022-10-22T16:22:16.175Z,17.3
2022-10-22T16:24:13.750Z,17.1
2022-10-22T16:26:11.357Z,17.2
2022-10-22T16:28:16.916Z,17.2
2022-10-22T16:30:14.524Z,17.2
2022-10-22T16:32:12.127Z,17
2022-10-22T16:34:09.787Z,17
2022-10-22T16:36:07.365Z,17
2022-10-22T16:38:04.961Z,16.9
2022-10-22T16:40:05.875Z,16.8
2022-10-22T16:42:08.078Z,16.7
2022-10-22T16:44:05.697Z,16.7
2022-10-22T16:46:03.331Z,16.5
2022-10-22T16:47:06.099Z,16.6
2022-10-22T16:49:03.735Z,16.6
2022-10-22T16:51:01.354Z,16.4
2022-10-22T16:52:58.987Z,16.4
2022-10-22T16:55:04.520Z,16.4
2022-10-22T16:57:02.932Z,16.3
2022-10-22T16:59:00.531Z,16.3
2022-10-22T17:00:58.202Z,16.2
2022-10-22T17:02:55.746Z,16.1
2022-10-22T17:04:53.353Z,16.2
2022-10-22T17:06:50.957Z,16.1
2022-10-22T17:08:56.641Z,16
2022-10-22T17:10:54.125Z,16
2022-10-22T17:12:51.764Z,16
2022-10-22T17:14:49.391Z,16
2022-10-22T17:16:47.003Z,15.9
2022-10-22T17:20:42.220Z,15.9
2022-10-22T17:22:47.817Z,15.8
2022-10-22T17:24:45.416Z,15.8
2022-10-22T17:26:43.025Z,16
2022-10-22T17:30:38.280Z,15.8
2022-10-22T17:32:35.901Z,15.7
2022-10-22T17:34:33.497Z,15.8
2022-10-22T17:36:39.041Z,15.6
2022-10-22T17:38:36.653Z,15.6
2022-10-22T17:40:34.421Z,15.5
2022-10-22T17:41:37.047Z,15.6
2022-10-22T17:43:34.790Z,15.4
2022-10-22T17:45:32.265Z,15.4
2022-10-22T17:47:29.877Z,15.4
2022-10-22T17:49:35.414Z,15.3
2022-10-22T17:55:28.310Z,15.3
2022-10-22T17:57:25.907Z,15.2
2022-10-22T17:59:23.526Z,15.3
2022-10-22T18:01:21.245Z,15.2
2022-10-22T18:03:26.719Z,15.1
2022-10-22T18:05:24.326Z,15.1
2022-10-22T18:07:21.958Z,15.1
2022-10-22T18:09:19.628Z,15
2022-10-22T18:11:17.157Z,14.9
2022-10-22T18:13:14.801Z,15.1
2022-10-22T18:15:12.425Z,15
2022-10-22T18:17:17.973Z,15
2022-10-22T18:19:15.579Z,15
2022-10-22T18:21:13.199Z,14.8
2022-10-22T18:23:10.846Z,14.8
2022-10-22T18:25:08.439Z,14.8
2022-10-22T18:27:06.135Z,14.7
2022-10-22T18:29:03.663Z,14.8
2022-10-22T18:31:09.221Z,14.7
2022-10-22T18:33:06.826Z,14.7
2022-10-22T18:35:04.472Z,14.7
2022-10-22T18:37:31.402Z,14.6
2022-10-22T18:39:29.009Z,14.6
2022-10-22T18:43:32.152Z,14.5
2022-10-22T18:47:29.110Z,14.6
2022-10-22T18:49:26.553Z,14.6
2022-10-22T18:51:24.195Z,14.4
2022-10-22T18:53:21.789Z,14.5
2022-10-22T18:55:19.401Z,14.5
2022-10-22T18:57:24.952Z,14.5
2022-10-22T18:59:22.596Z,14.5
2022-10-22T19:01:20.270Z,14.3
2022-10-22T19:03:17.866Z,14.4
2022-10-22T19:05:15.503Z,14.4
2022-10-22T19:07:13.111Z,14.2
2022-10-22T19:09:10.751Z,14.1
2022-10-22T19:11:16.274Z,14.2
2022-10-22T19:13:13.916Z,14.2
2022-10-22T19:15:11.559Z,14.3
2022-10-22T19:17:09.193Z,14.3
2022-10-22T19:19:06.825Z,14.2
2022-10-22T19:21:04.466Z,14.2
2022-10-22T19:23:02.190Z,14.1
2022-10-22T19:25:09.767Z,14.2
2022-10-22T19:27:05.231Z,14.3
2022-10-22T19:30:05.631Z,14.2
2022-10-22T19:32:03.300Z,14.1
2022-10-22T19:34:00.873Z,14.1
2022-10-22T19:38:04.066Z,14.1
2022-10-22T19:40:01.699Z,14
2022-10-22T19:41:59.288Z,14.1
2022-10-22T19:43:56.921Z,14.1
2022-10-22T19:45:54.553Z,14.1
2022-10-22T19:47:52.139Z,14
2022-10-22T19:49:49.763Z,14
2022-10-22T19:51:55.310Z,13.9
2022-10-22T19:53:52.932Z,14
2022-10-22T19:55:50.569Z,14
2022-10-22T19:57:48.200Z,14
2022-10-22T19:59:45.813Z,14.1
2022-10-22T20:01:43.445Z,14
2022-10-22T20:03:41.079Z,14
2022-10-22T20:05:46.620Z,13.8
2022-10-22T20:07:44.499Z,13.9
2022-10-22T20:09:41.873Z,13.8
2022-10-22T20:11:39.499Z,13.7
2022-10-22T20:13:37.161Z,13.7
2022-10-22T20:15:34.761Z,13.7
2022-10-22T20:17:32.363Z,13.7
2022-10-22T20:19:37.905Z,13.7
2022-10-22T20:21:35.514Z,13.7
2022-10-22T20:23:33.156Z,13.7
2022-10-22T20:24:35.923Z,13.8
2022-10-22T20:26:33.572Z,13.7
2022-10-22T20:28:31.178Z,13.8
2022-10-22T20:30:28.816Z,13.7
2022-10-22T20:32:34.323Z,13.6
2022-10-22T20:34:31.947Z,13.7
2022-10-22T20:36:29.570Z,13.7
2022-10-22T20:38:27.212Z,13.7
2022-10-22T20:40:24.834Z,13.6
2022-10-22T20:42:22.448Z,13.6
2022-10-22T20:44:20.103Z,13.7
2022-10-22T20:46:25.644Z,13.7
2022-10-22T20:48:23.249Z,13.7
2022-10-22T20:50:21.028Z,13.5
2022-10-22T20:52:18.516Z,13.6
2022-10-22T20:54:16.145Z,13.5
2022-10-22T20:56:13.768Z,13.6
2022-10-22T20:58:11.407Z,13.5
2022-10-22T21:00:17.025Z,13.5
2022-10-22T21:02:14.606Z,13.6
2022-10-22T21:04:12.235Z,13.5
2022-10-22T21:06:09.858Z,13.6
2022-10-22T21:08:07.502Z,13.5
2022-10-22T21:10:05.129Z,13.5
2022-10-22T21:12:02.740Z,13.5
2022-10-22T21:18:03.542Z,13.5
2022-10-22T21:21:03.986Z,13.5
2022-10-22T21:23:01.597Z,13.4
2022-10-22T21:24:59.244Z,13.5
2022-10-22T21:29:02.420Z,13.4
2022-10-22T21:31:00.058Z,13.4
2022-10-22T21:32:57.687Z,13.3
2022-10-22T21:34:55.293Z,13.4
2022-10-22T21:36:53.035Z,13.2
2022-10-22T21:38:50.558Z,13.4
2022-10-22T21:44:51.326Z,13.3
2022-10-22T21:46:48.947Z,13.3
2022-10-22T21:48:46.629Z,13.3
2022-10-22T21:50:44.231Z,13.2
2022-10-22T21:52:41.858Z,13.2
2022-10-22T21:54:47.391Z,13.3
2022-10-22T21:56:45.033Z,13.2
2022-10-22T21:58:42.680Z,13.2
2022-10-22T22:00:40.331Z,13.1
2022-10-22T22:02:37.935Z,13.1
2022-10-22T22:04:35.584Z,13
2022-10-22T22:06:33.772Z,13.1
2022-10-22T22:08:38.815Z,13
2022-10-22T22:10:36.430Z,13.1
2022-10-22T22:12:34.045Z,13.1
2022-10-22T22:15:00.993Z,13.1
2022-10-22T22:16:58.646Z,13.1
2022-10-22T22:18:56.391Z,13.2
2022-10-22T22:22:59.452Z,13.2
2022-10-22T22:24:57.097Z,13.1
2022-10-22T22:26:54.740Z,13.3
2022-10-22T22:30:49.996Z,13.2
2022-10-22T22:32:47.638Z,13.2
2022-10-22T22:34:53.193Z,13.2
2022-10-22T22:36:50.841Z,13.2
2022-10-22T22:38:48.504Z,13.1
2022-10-22T22:40:46.116Z,13.2
2022-10-22T22:42:43.735Z,13.2
2022-10-22T22:44:41.360Z,13.2
2022-10-22T22:46:38.988Z,13.1
2022-10-22T22:48:44.543Z,13.1
2022-10-22T22:54:37.480Z,13.1
2022-10-22T22:56:35.118Z,13.1
2022-10-22T22:58:32.738Z,13
2022-10-22T23:00:30.478Z,13
2022-10-22T23:02:35.931Z,12.9
2022-10-22T23:04:33.591Z,13
2022-10-22T23:06:31.233Z,12.9
2022-10-22T23:07:33.985Z,12.9
2022-10-22T23:11:29.247Z,13
2022-10-22T23:13:26.882Z,12.9
2022-10-22T23:19:27.682Z,13.1
2022-10-22T23:21:25.319Z,13
2022-10-22T23:25:20.586Z,12.9
2022-10-22T23:27:18.229Z,13
2022-10-22T23:29:23.766Z,13
2022-10-22T23:31:21.396Z,13.1
2022-10-22T23:33:19.036Z,13
2022-10-22T23:39:11.950Z,13
2022-10-22T23:41:09.541Z,12.9
2022-10-22T23:43:15.091Z,13.1
2022-10-22T23:45:12.756Z,13.1
2022-10-22T23:47:10.363Z,13.1
2022-10-22T23:49:08.006Z,13
2022-10-22T23:51:05.648Z,13.1
2022-10-22T23:53:03.266Z,13.2
2022-10-22T23:57:06.488Z,13.2
2022-10-22T23:59:04.166Z,13.1
